createdAt,value
2024-01-11T00:03:21.636Z,103504.06
2024-01-11T00:08:23.162Z,103489.28
2024-01-11T00:13:24.643Z,103476.13
2024-01-11T00:18:26.229Z,103476.25
2024-01-11T00:23:27.790Z,103452.06
2024-01-11T00:28:29.549Z,103434.69
2024-01-11T00:33:31.228Z,103448.09
2024-01-11T00:38:32.920Z,103433.97
2024-01-11T00:43:34.393Z,103431.63
2024-01-11T00:48:36.035Z,103425.97
2024-01-11T00:53:37.628Z,103421.03
2024-01-11T00:58:39.502Z,103432.78
2024-01-11T01:03:41.143Z,103418.53
2024-01-11T01:08:42.687Z,103401.78
2024-01-11T01:13:44.216Z,103370.47
2024-01-11T01:18:45.729Z,103402.44
2024-01-11T01:23:47.261Z,103397.38
2024-01-11T01:28:48.808Z,103393.81
2024-01-11T01:33:50.292Z,103379.50
2024-01-11T01:38:51.809Z,103391.28
2024-01-11T01:43:53.386Z,103385.50
2024-01-11T01:48:56.710Z,103390.63
2024-01-11T01:53:59.062Z,103369.56
2024-01-11T01:59:02.214Z,103394.91
2024-01-11T02:04:03.904Z,103381.91
2024-01-11T02:09:07.186Z,103420.72
2024-01-11T02:14:09.820Z,103430.19
2024-01-11T02:19:14.364Z,103434.28
2024-01-11T02:24:16.267Z,103410.75
2024-01-11T02:29:17.764Z,103429.22
2024-01-11T02:34:20.053Z,103435.97
2024-01-11T02:39:23.476Z,103421.66
2024-01-11T02:44:25.365Z,103430.59
2024-01-11T02:49:26.882Z,103435.78
2024-01-11T02:54:28.349Z,103433.38
2024-01-11T02:59:29.882Z,103401.59
2024-01-11T03:04:31.370Z,103406.75
2024-01-11T03:09:32.825Z,103415.19
2024-01-11T03:14:34.408Z,103403.56
2024-01-11T03:19:40.888Z,103419.72
2024-01-11T03:24:42.337Z,103414.72
2024-01-11T03:29:43.857Z,103413.28
2024-01-11T03:34:45.448Z,103427.88
2024-01-11T03:39:46.942Z,103428.00
2024-01-11T03:44:48.388Z,103423.16
2024-01-11T03:49:50.209Z,103457.84
2024-01-11T03:54:51.995Z,103444.38
2024-01-11T03:59:53.481Z,103436.91
2024-01-11T04:04:54.954Z,103431.28
2024-01-11T04:09:56.463Z,103405.38
2024-01-11T04:14:57.944Z,103397.06
2024-01-11T04:19:59.505Z,103384.41
2024-01-11T04:25:01.287Z,103365.84
2024-01-11T04:30:03.253Z,103376.81
2024-01-11T04:35:05.190Z,103356.63
2024-01-11T04:40:08.167Z,103341.53
2024-01-11T04:45:09.894Z,103329.84
2024-01-11T04:50:11.364Z,103342.66
2024-01-11T04:55:12.861Z,103332.59
2024-01-11T05:00:14.581Z,103303.13
2024-01-11T05:05:16.209Z,103297.41
2024-01-11T05:10:17.708Z,103335.44
2024-01-11T05:15:19.212Z,103353.31
2024-01-11T05:20:20.755Z,103351.84
2024-01-11T05:25:22.284Z,103346.25
2024-01-11T05:30:24.889Z,103348.97
2024-01-11T05:35:27.418Z,103352.44
2024-01-11T05:40:28.927Z,103360.16
2024-01-11T05:45:40.807Z,103362.81
2024-01-11T05:50:49.028Z,103353.53
2024-01-11T05:55:52.531Z,103334.09
2024-01-11T06:00:55.225Z,103340.00
2024-01-11T06:05:57.046Z,103322.97
2024-01-11T06:10:59.249Z,103324.38
2024-01-11T06:16:00.761Z,103314.06
2024-01-11T06:21:02.253Z,103330.84
2024-01-11T06:26:03.969Z,103325.56
2024-01-11T06:31:05.616Z,103319.44
2024-01-11T06:36:07.656Z,103319.50
2024-01-11T06:41:09.119Z,103331.38
2024-01-11T06:46:10.596Z,103317.91
2024-01-11T06:51:15.917Z,103322.25
2024-01-11T06:56:19.414Z,103322.19
2024-01-11T07:01:21.211Z,103329.06
2024-01-11T07:06:22.889Z,103324.16
2024-01-11T07:23:15.796Z,103341.31
2024-01-11T07:28:17.306Z,103361.47
2024-01-11T07:33:19.063Z,103359.03
2024-01-11T07:38:20.601Z,103340.63
2024-01-11T07:43:23.789Z,103342.44
2024-01-11T07:48:26.726Z,103346.81
2024-01-11T07:53:28.260Z,103356.94
2024-01-11T07:58:29.737Z,103369.56
2024-01-11T08:03:31.267Z,103366.44
2024-01-11T08:08:32.797Z,103379.28
2024-01-11T08:13:34.359Z,103383.56
2024-01-11T08:18:36.151Z,103376.06
2024-01-11T08:23:43.737Z,103371.81
2024-01-11T08:28:45.729Z,103354.22
2024-01-11T08:33:48.538Z,103347.78
2024-01-11T08:38:50.179Z,103337.84
2024-01-11T08:43:51.689Z,103343.97
2024-01-11T08:48:54.709Z,103337.34
2024-01-11T08:53:56.297Z,103331.53
2024-01-11T08:58:57.966Z,103327.53
2024-01-11T09:03:59.416Z,103320.94
2024-01-11T09:09:00.892Z,103313.44
2024-01-11T09:14:02.917Z,103321.84
2024-01-11T09:19:04.400Z,103317.75
2024-01-11T09:24:05.892Z,103318.84
2024-01-11T09:29:07.418Z,103323.88
2024-01-11T09:34:09.138Z,103312.31
2024-01-11T09:39:10.714Z,103323.34
2024-01-11T09:44:12.305Z,103326.06
2024-01-11T09:49:15.908Z,103314.31
2024-01-11T09:54:20.278Z,103311.16
2024-01-11T09:59:22.326Z,103315.50
2024-01-11T10:04:23.943Z,103305.53
2024-01-11T10:09:25.530Z,103306.59
2024-01-11T10:14:27.973Z,103298.34
2024-01-11T10:19:29.716Z,103294.19
2024-01-11T10:24:31.554Z,103277.44
2024-01-11T10:29:34.253Z,103269.16
2024-01-11T10:34:35.763Z,103277.47
2024-01-11T10:39:37.443Z,103271.09
2024-01-11T10:44:46.153Z,103281.44
2024-01-11T10:49:52.943Z,103284.34
2024-01-11T10:54:54.803Z,103295.38
2024-01-11T10:59:56.707Z,103297.34
2024-01-11T11:04:59.706Z,103321.84
2024-01-11T11:10:03.238Z,103324.13
2024-01-11T11:15:06.476Z,103322.59
2024-01-11T11:20:09.012Z,103312.84
2024-01-11T11:25:11.135Z,103312.72
2024-01-11T11:30:12.807Z,103310.19
2024-01-11T11:35:14.382Z,103300.13
2024-01-11T11:40:15.882Z,103294.31
2024-01-11T11:45:26.658Z,103295.25
2024-01-11T11:50:30.754Z,103286.75
2024-01-11T11:55:35.406Z,103289.41
2024-01-11T12:00:36.951Z,103279.06
2024-01-11T12:05:39.453Z,103282.38
2024-01-11T12:10:41.048Z,103277.34
2024-01-11T12:15:42.504Z,103279.25
2024-01-11T12:20:44.444Z,103276.94
2024-01-11T12:25:46.348Z,103264.25
2024-01-11T12:30:48.052Z,103260.09
2024-01-11T12:35:49.822Z,103256.66
2024-01-11T12:40:51.487Z,103231.41
2024-01-11T12:45:52.984Z,103225.53
2024-01-11T12:51:05.399Z,103232.63
2024-01-11T12:56:16.870Z,103225.88
2024-01-11T13:01:18.963Z,103219.22
2024-01-11T13:06:20.795Z,103214.94
2024-01-11T13:11:22.658Z,103216.63
2024-01-11T13:16:25.716Z,103206.69
2024-01-11T13:21:27.153Z,103204.22
2024-01-11T13:26:29.011Z,103207.66
2024-01-11T13:31:30.523Z,103198.19
2024-01-11T13:36:31.985Z,103205.72
2024-01-11T13:41:33.526Z,103205.59
2024-01-11T13:46:35.004Z,103205.72
2024-01-11T13:51:46.106Z,103205.72
2024-01-11T13:56:55.246Z,103196.47
2024-01-11T14:01:56.721Z,103216.66
2024-01-11T14:06:58.244Z,103210.78
2024-01-11T14:11:59.755Z,103220.13
2024-01-11T14:17:01.216Z,103216.66
2024-01-11T14:22:02.700Z,103229.34
2024-01-11T14:27:04.510Z,103212.38
2024-01-11T14:32:06.696Z,103200.41
2024-01-11T14:37:08.209Z,103210.47
2024-01-11T14:42:10.024Z,103221.41
2024-01-11T14:47:11.527Z,103229.00
2024-01-11T14:52:14.931Z,103235.69
2024-01-11T14:57:17.973Z,103233.97
2024-01-11T15:02:19.558Z,103232.28
2024-01-11T15:07:21.169Z,103237.28
2024-01-11T15:12:22.721Z,103239.63
2024-01-11T15:17:24.269Z,103258.13
2024-01-11T15:22:25.793Z,103261.44
2024-01-11T15:27:27.501Z,103263.13
2024-01-11T15:32:29.048Z,103268.09
2024-01-11T15:37:30.581Z,103272.97
2024-01-11T15:42:35.737Z,103270.31
2024-01-11T15:47:37.401Z,103254.81
2024-01-11T15:52:39.898Z,103264.69
2024-01-11T15:57:41.501Z,103263.72
2024-01-11T16:02:43.089Z,103271.84
2024-01-11T16:07:44.870Z,103270.56
2024-01-11T16:12:46.418Z,103285.50
